createdAt,value
2023-11-20T00:02:10.074Z,97467.41
2023-11-20T00:04:36.740Z,97460.22
2023-11-20T00:07:03.339Z,97460.97
2023-11-20T00:09:29.946Z,97457.16
2023-11-20T00:11:56.545Z,97460.47
2023-11-20T00:14:23.123Z,97455.31
2023-11-20T00:16:49.783Z,97460.03
2023-11-20T00:19:16.430Z,97446.97
2023-11-20T00:21:43.070Z,97444.31
2023-11-20T00:24:09.779Z,97448.66
2023-11-20T00:26:36.414Z,97447.34
2023-11-20T00:29:03.249Z,97436.97
2023-11-20T00:31:29.851Z,97437.31
2023-11-20T00:33:56.521Z,97435.22
2023-11-20T00:36:23.117Z,97427.66
2023-11-20T00:38:49.730Z,97419.84
2023-11-20T00:41:16.408Z,97421.88
2023-11-20T00:43:42.975Z,97415.91
2023-11-20T00:46:09.621Z,97418.59
2023-11-20T00:48:36.259Z,97422.44
2023-11-20T00:51:02.941Z,97424.75
2023-11-20T00:53:29.590Z,97423.78
2023-11-20T00:55:56.183Z,97430.97
2023-11-20T00:58:22.766Z,97437.06
2023-11-20T01:00:49.410Z,97428.53
2023-11-20T01:03:16.115Z,97431.25
2023-11-20T01:05:42.762Z,97428.47
2023-11-20T01:08:09.349Z,97421.97
2023-11-20T01:10:35.979Z,97430.28
2023-11-20T01:13:02.586Z,97433.75
2023-11-20T01:15:29.225Z,97435.78
2023-11-20T01:17:55.924Z,97440.72
2023-11-20T01:20:22.504Z,97439.31
2023-11-20T01:22:49.071Z,97429.59
2023-11-20T01:25:15.678Z,97434.19
2023-11-20T01:27:42.320Z,97438.78
2023-11-20T01:30:08.905Z,97439.59
2023-11-20T01:32:35.520Z,97428.13
2023-11-20T01:35:02.123Z,97420.66
2023-11-20T01:37:28.813Z,97411.31
2023-11-20T01:39:55.473Z,97422.28
2023-11-20T01:42:22.069Z,97423.22
2023-11-20T01:44:48.622Z,97415.91
2023-11-20T01:47:15.200Z,97419.53
2023-11-20T01:49:41.764Z,97402.34
2023-11-20T01:52:08.398Z,97405.41
2023-11-20T01:54:35.035Z,97395.28
2023-11-20T01:57:01.609Z,97398.03
2023-11-20T01:59:28.187Z,97390.16
2023-11-20T02:01:54.801Z,97387.78
2023-11-20T02:04:21.440Z,97385.09
2023-11-20T02:06:48.064Z,97373.13
2023-11-20T02:09:14.695Z,97388.31
2023-11-20T02:11:41.265Z,97390.53
2023-11-20T02:14:07.846Z,97380.81
2023-11-20T02:16:34.408Z,97385.34
2023-11-20T02:19:01.034Z,97390.28
2023-11-20T02:21:27.603Z,97381.88
2023-11-20T02:23:54.190Z,97382.81
2023-11-20T02:26:20.748Z,97377.97
2023-11-20T02:28:47.411Z,97384.38
2023-11-20T02:31:14.092Z,97382.06
2023-11-20T02:33:40.756Z,97384.97
2023-11-20T02:36:07.337Z,97382.91
2023-11-20T02:38:33.916Z,97379.66
2023-11-20T02:41:00.484Z,97377.47
2023-11-20T02:43:27.394Z,97376.16
2023-11-20T02:45:54.001Z,97365.59
2023-11-20T02:48:20.601Z,97357.28
2023-11-20T02:50:47.179Z,97366.28
2023-11-20T02:53:13.601Z,97363.81
2023-11-20T02:55:40.032Z,97366.31
2023-11-20T02:58:06.523Z,97369.91
2023-11-20T03:00:32.988Z,97365.59
2023-11-20T03:02:59.493Z,97368.69
2023-11-20T03:05:25.989Z,97363.13
2023-11-20T03:07:52.404Z,97362.41
2023-11-20T03:10:18.981Z,97357.69
2023-11-20T03:12:45.487Z,97360.84
2023-11-20T03:15:11.935Z,97354.22
2023-11-20T03:17:41.281Z,97351.91
2023-11-20T03:20:07.789Z,97353.03
2023-11-20T03:22:34.403Z,97346.41
2023-11-20T03:25:00.849Z,97354.53
2023-11-20T03:27:27.305Z,97342.38
2023-11-20T03:29:53.780Z,97335.88
2023-11-20T03:32:20.217Z,97339.69
2023-11-20T03:34:47.701Z,97334.81
2023-11-20T03:37:14.159Z,97328.38
2023-11-20T03:39:40.612Z,97337.84
2023-11-20T03:42:07.103Z,97341.88
2023-11-20T03:44:33.514Z,97332.59
2023-11-20T03:47:00.005Z,97327.91
2023-11-20T03:49:26.511Z,97329.09
2023-11-20T03:51:53.111Z,97329.53
2023-11-20T03:54:19.722Z,97330.69
2023-11-20T03:56:46.279Z,97335.88
2023-11-20T03:59:15.013Z,97338.31
2023-11-20T04:01:41.619Z,97328.53
2023-11-20T04:04:08.263Z,97330.25
2023-11-20T04:06:34.884Z,97326.75
2023-11-20T04:09:01.556Z,97327.84
2023-11-20T04:11:28.122Z,97326.31
2023-11-20T04:13:54.715Z,97318.25
2023-11-20T04:16:21.288Z,97330.78
2023-11-20T04:18:48.365Z,97330.34
2023-11-20T04:21:15.171Z,97326.38
2023-11-20T04:23:42.159Z,97324.44
2023-11-20T04:26:08.712Z,97316.78
2023-11-20T04:28:35.273Z,97309.84
2023-11-20T04:31:02.186Z,97307.47
2023-11-20T04:33:28.904Z,97313.56
2023-11-20T04:35:55.500Z,97317.53
2023-11-20T04:38:22.117Z,97314.41
2023-11-20T04:40:48.716Z,97312.59
2023-11-20T04:43:15.336Z,97320.47
2023-11-20T04:45:41.947Z,97322.44
2023-11-20T04:48:08.546Z,97319.66
2023-11-20T04:50:35.116Z,97319.78
2023-11-20T04:53:01.746Z,97309.00
2023-11-20T04:55:28.374Z,97312.41
2023-11-20T04:57:54.992Z,97313.44
2023-11-20T05:00:21.634Z,97313.22
2023-11-20T05:02:48.277Z,97311.66
2023-11-20T05:05:14.933Z,97304.53
2023-11-20T05:07:41.563Z,97297.22
2023-11-20T05:10:08.339Z,97297.41
2023-11-20T05:12:35.042Z,97303.97
2023-11-20T05:15:01.680Z,97294.13
2023-11-20T05:17:28.274Z,97295.38
2023-11-20T05:19:55.014Z,97293.59
2023-11-20T05:22:21.592Z,97290.34
2023-11-20T05:24:48.202Z,97296.25
2023-11-20T05:27:14.821Z,97293.66
2023-11-20T05:29:41.388Z,97291.31
2023-11-20T05:32:10.385Z,97299.03
2023-11-20T05:34:36.994Z,97298.28
2023-11-20T05:37:03.642Z,97303.91
2023-11-20T05:39:30.220Z,97305.75
2023-11-20T05:41:56.815Z,97304.91
2023-11-20T05:44:23.446Z,97304.41
2023-11-20T05:46:50.058Z,97302.78
2023-11-20T05:49:16.705Z,97297.06
2023-11-20T05:51:43.364Z,97302.69
2023-11-20T05:54:09.961Z,97294.19
2023-11-20T05:56:36.523Z,97290.81
2023-11-20T05:59:05.676Z,97290.72
2023-11-20T06:01:32.337Z,97289.91
2023-11-20T06:03:59.035Z,97290.63
2023-11-20T06:06:25.647Z,97290.78
2023-11-20T06:08:52.212Z,97288.56
2023-11-20T06:11:18.785Z,97277.72
2023-11-20T06:13:45.364Z,97280.16
2023-11-20T06:16:12.060Z,97282.63
2023-11-20T06:18:38.843Z,97281.03
2023-11-20T06:21:05.419Z,97286.38
2023-11-20T06:23:32.006Z,97285.84
2023-11-20T06:25:58.557Z,97294.47
2023-11-20T06:28:25.097Z,97278.78
2023-11-20T06:30:51.785Z,97269.81
2023-11-20T06:33:18.402Z,97262.75
2023-11-20T06:35:45.099Z,97270.00
2023-11-20T06:38:11.658Z,97275.25
2023-11-20T06:40:38.316Z,97276.53
2023-11-20T06:43:04.974Z,97265.53
2023-11-20T06:45:31.581Z,97271.34
2023-11-20T06:47:58.249Z,97272.69
2023-11-20T06:50:24.926Z,97265.97
2023-11-20T06:52:51.523Z,97265.41
2023-11-20T06:55:18.130Z,97276.78
2023-11-20T06:57:44.757Z,97279.41
2023-11-20T07:00:11.358Z,97283.34
2023-11-20T07:02:38.012Z,97287.38
2023-11-20T07:05:04.755Z,97287.31
2023-11-20T07:07:31.388Z,97275.34
2023-11-20T07:09:58.009Z,97277.25
2023-11-20T07:12:24.621Z,97279.44
2023-11-20T07:14:51.182Z,97289.16
2023-11-20T07:17:17.737Z,97288.59
2023-11-20T07:19:44.304Z,97291.22
2023-11-20T07:22:10.942Z,97286.16
2023-11-20T07:24:37.585Z,97276.91
2023-11-20T07:27:04.158Z,97286.13
2023-11-20T07:29:30.741Z,97284.22
2023-11-20T07:31:57.348Z,97283.13
2023-11-20T07:34:23.962Z,97285.66
2023-11-20T07:36:50.657Z,97292.19
2023-11-20T07:39:17.261Z,97292.81
2023-11-20T07:41:43.847Z,97292.38
2023-11-20T07:44:10.441Z,97294.50
2023-11-20T07:46:37.341Z,97299.78
2023-11-20T07:49:04.073Z,97314.09
2023-11-20T07:51:30.687Z,97305.56
2023-11-20T07:53:57.252Z,97299.34
2023-11-20T07:56:23.846Z,97292.75
2023-11-20T07:58:50.468Z,97300.00
2023-11-20T08:01:17.116Z,97293.34
2023-11-20T08:03:43.848Z,97286.47
2023-11-20T08:06:19.640Z,97296.06
2023-11-20T08:08:47.609Z,97282.53
2023-11-20T08:11:14.208Z,97273.66
2023-11-20T08:13:40.751Z,97280.72
2023-11-20T08:16:07.551Z,97285.44
2023-11-20T08:18:34.153Z,97287.19
2023-11-20T08:21:00.749Z,97290.47
2023-11-20T08:23:27.616Z,97288.88
2023-11-20T08:25:54.213Z,97293.66
2023-11-20T08:28:20.877Z,97301.41
2023-11-20T08:30:47.556Z,97289.44
2023-11-20T08:33:14.153Z,97282.19
2023-11-20T08:35:40.806Z,97282.47
2023-11-20T08:38:07.382Z,97278.66
2023-11-20T08:40:34.072Z,97282.69
2023-11-20T08:43:00.739Z,97278.19
2023-11-20T08:45:27.584Z,97278.91
2023-11-20T08:47:54.227Z,97280.00
2023-11-20T08:50:21.904Z,97280.59
2023-11-20T08:52:48.526Z,97289.94
2023-11-20T08:57:42.069Z,97273.72
2023-11-20T09:00:08.695Z,97276.06
2023-11-20T09:02:35.295Z,97273.59
2023-11-20T09:05:01.896Z,97274.31
2023-11-20T09:07:28.458Z,97264.00
2023-11-20T09:09:55.049Z,97264.50
2023-11-20T09:12:21.630Z,97265.50
2023-11-20T09:14:48.231Z,97254.06
2023-11-20T09:17:14.893Z,97247.28
2023-11-20T09:19:41.482Z,97253.63
2023-11-20T09:22:08.096Z,97245.38
2023-11-20T09:24:34.677Z,97251.41
2023-11-20T09:27:01.240Z,97240.81
2023-11-20T09:29:27.801Z,97242.94
2023-11-20T09:31:54.392Z,97254.91
2023-11-20T09:34:21.049Z,97262.94
2023-11-20T09:36:47.692Z,97254.31
2023-11-20T09:39:14.417Z,97250.81
2023-11-20T09:41:41.093Z,97253.34
2023-11-20T09:44:07.681Z,97247.38
2023-11-20T09:46:34.406Z,97247.81
2023-11-20T09:49:01.628Z,97244.16
2023-11-20T09:51:28.247Z,97246.88
2023-11-20T09:53:54.848Z,97247.66
2023-11-20T09:56:21.459Z,97241.31
2023-11-20T09:58:48.140Z,97230.44
2023-11-20T10:01:15.844Z,97226.34
2023-11-20T10:03:43.110Z,97235.63
2023-11-20T10:06:09.825Z,97223.19
2023-11-20T10:08:36.550Z,97216.50
2023-11-20T10:11:03.157Z,97223.47
2023-11-20T10:13:29.747Z,97224.75
2023-11-20T10:15:56.465Z,97218.44
2023-11-20T10:18:23.037Z,97214.13
2023-11-20T10:20:49.669Z,97199.91
2023-11-20T10:23:16.339Z,97199.25
2023-11-20T10:25:42.971Z,97195.44
2023-11-20T10:28:09.714Z,97184.25
2023-11-20T10:30:36.321Z,97186.03
2023-11-20T10:33:03.008Z,97178.47
2023-11-20T10:35:29.754Z,97175.84
2023-11-20T10:37:56.358Z,97164.84
2023-11-20T10:40:22.958Z,97177.25
2023-11-20T10:42:49.665Z,97165.13
2023-11-20T10:45:16.267Z,97161.66
2023-11-20T10:47:42.903Z,97155.75
2023-11-20T10:50:09.518Z,97153.47
2023-11-20T10:52:36.311Z,97146.81
2023-11-20T10:55:02.931Z,97143.53
2023-11-20T10:57:29.558Z,97126.84
2023-11-20T10:59:56.124Z,97129.84
2023-11-20T11:02:22.727Z,97118.41
2023-11-20T11:04:49.420Z,97110.59
2023-11-20T11:07:16.057Z,97115.16
2023-11-20T11:09:42.646Z,97110.38
2023-11-20T11:12:09.239Z,97111.19
2023-11-20T11:14:35.864Z,97102.47
2023-11-20T11:17:02.507Z,97094.84
2023-11-20T11:19:29.133Z,97091.69
2023-11-20T11:21:55.768Z,97089.13
2023-11-20T11:24:22.342Z,97091.78
2023-11-20T11:26:48.913Z,97080.25
2023-11-20T11:29:15.508Z,97081.25
2023-11-20T11:31:42.198Z,97072.56
2023-11-20T11:34:08.804Z,97079.69
2023-11-20T11:36:35.376Z,97068.06
2023-11-20T11:39:01.942Z,97059.91
2023-11-20T11:41:29.803Z,97051.16
2023-11-20T11:43:56.399Z,97053.69
2023-11-20T11:46:23.070Z,97047.50
2023-11-20T11:48:49.662Z,97044.03
2023-11-20T11:51:16.262Z,97047.75
2023-11-20T11:53:42.851Z,97050.91
2023-11-20T11:56:09.890Z,97047.59
2023-11-20T11:58:36.479Z,97040.28
2023-11-20T12:01:03.100Z,97037.41
2023-11-20T12:03:29.740Z,97036.97
2023-11-20T12:05:56.355Z,97026.19
2023-11-20T12:08:22.922Z,97023.97
2023-11-20T12:10:49.493Z,97016.19
2023-11-20T12:13:16.198Z,97009.72
2023-11-20T12:15:42.802Z,97007.28
2023-11-20T12:18:09.418Z,97001.44
2023-11-20T12:20:36.144Z,96998.91
2023-11-20T12:23:02.766Z,97000.03
2023-11-20T12:25:29.398Z,96999.78
2023-11-20T12:27:56.043Z,96994.97
2023-11-20T12:30:22.651Z,96994.41
2023-11-20T12:32:49.253Z,96990.47
2023-11-20T12:35:15.860Z,96994.75
2023-11-20T12:37:42.441Z,96981.25
2023-11-20T12:40:09.166Z,96991.44
2023-11-20T12:42:35.758Z,96986.56
2023-11-20T12:45:02.338Z,96987.66
2023-11-20T12:47:28.921Z,96978.78
2023-11-20T12:49:55.486Z,96978.88
2023-11-20T12:52:22.120Z,96976.28
2023-11-20T12:54:48.701Z,96970.75
2023-11-20T12:57:15.279Z,96982.16
2023-11-20T12:59:41.863Z,96966.19
2023-11-20T13:02:08.449Z,96973.06
2023-11-20T13:04:35.135Z,96963.19
2023-11-20T13:07:01.860Z,96968.31
2023-11-20T13:09:28.461Z,96967.44
2023-11-20T13:11:55.115Z,96961.13
2023-11-20T13:14:21.762Z,96958.63
2023-11-20T13:16:48.581Z,96947.16
2023-11-20T13:19:15.261Z,96946.81
2023-11-20T13:21:41.877Z,96944.72
2023-11-20T13:24:08.436Z,96936.81
2023-11-20T13:26:35.007Z,96936.00
2023-11-20T13:29:01.630Z,96942.91
2023-11-20T13:31:28.235Z,96945.84
2023-11-20T13:33:54.936Z,96944.81
2023-11-20T13:36:21.549Z,96941.19
2023-11-20T13:38:48.113Z,96944.59
2023-11-20T13:41:14.683Z,96936.50
2023-11-20T13:43:41.254Z,96933.81
2023-11-20T13:46:08.133Z,96929.44
2023-11-20T13:48:34.981Z,96925.38
2023-11-20T13:51:01.797Z,96932.47
2023-11-20T13:53:28.380Z,96939.41
2023-11-20T13:55:54.971Z,96926.69
2023-11-20T13:58:21.797Z,96920.00
2023-11-20T14:00:48.391Z,96920.50
2023-11-20T14:03:15.222Z,96912.41
2023-11-20T14:05:41.890Z,96907.97
2023-11-20T14:08:08.474Z,96900.25
2023-11-20T14:10:35.098Z,96895.88
2023-11-20T14:13:01.812Z,96895.88
2023-11-20T14:15:28.388Z,96893.56
2023-11-20T14:17:55.014Z,96889.59
2023-11-20T14:20:21.874Z,96894.38
2023-11-20T14:22:48.486Z,96891.44
2023-11-20T14:25:15.469Z,96891.63
2023-11-20T14:27:42.144Z,96884.13
2023-11-20T14:30:08.755Z,96885.00
2023-11-20T14:32:35.388Z,96889.69
2023-11-20T14:35:01.978Z,96885.59
2023-11-20T14:37:28.559Z,96885.19
2023-11-20T14:39:55.198Z,96883.38
2023-11-20T14:42:24.429Z,96880.13
2023-11-20T14:44:54.144Z,96880.78
2023-11-20T14:47:20.838Z,96884.91
2023-11-20T14:49:49.234Z,96895.53
2023-11-20T14:52:15.816Z,96886.31
2023-11-20T14:54:43.603Z,96889.78
2023-11-20T14:57:10.164Z,96889.44
2023-11-20T14:59:36.760Z,96887.63
2023-11-20T15:02:03.357Z,96879.69
2023-11-20T15:04:30.063Z,96892.66
2023-11-20T15:06:56.942Z,96900.69
2023-11-20T15:09:23.540Z,96900.81
2023-11-20T15:11:50.122Z,96897.78
2023-11-20T15:14:16.787Z,96896.03
2023-11-20T15:16:43.480Z,96899.50
2023-11-20T15:19:10.163Z,96897.72
2023-11-20T15:21:36.752Z,96893.97
2023-11-20T15:24:03.334Z,96884.31
2023-11-20T15:26:29.914Z,96880.47
2023-11-20T15:28:56.503Z,96876.56
2023-11-20T15:31:23.147Z,96877.34
2023-11-20T15:33:49.750Z,96881.84
2023-11-20T15:36:16.356Z,96875.53
2023-11-20T15:38:43.002Z,96871.78
2023-11-20T15:41:09.914Z,96859.00
2023-11-20T15:43:36.642Z,96865.44
2023-11-20T15:46:03.345Z,96852.03
2023-11-20T15:48:29.985Z,96848.78
2023-11-20T15:50:56.565Z,96836.63
2023-11-20T15:53:23.355Z,96835.31
2023-11-20T15:55:50.020Z,96829.13
2023-11-20T15:58:16.628Z,96847.06
2023-11-20T16:00:43.344Z,96841.56
2023-11-20T16:03:10.002Z,96844.00
2023-11-20T16:05:36.638Z,96845.81
2023-11-20T16:08:03.204Z,96842.47
2023-11-20T16:10:29.814Z,96836.78
2023-11-20T16:12:56.447Z,96838.59
2023-11-20T16:15:23.058Z,96843.59
2023-11-20T16:17:49.666Z,96849.66
2023-11-20T16:20:16.280Z,96861.22
2023-11-20T16:22:42.890Z,96858.91
2023-11-20T16:25:09.498Z,96853.59
2023-11-20T16:27:36.108Z,96856.63
2023-11-20T16:30:02.693Z,96848.72
2023-11-20T16:32:29.371Z,96852.03
2023-11-20T16:34:55.961Z,96851.84
2023-11-20T16:37:22.634Z,96845.66
2023-11-20T16:39:51.413Z,96849.34
2023-11-20T16:42:18.019Z,96863.25
2023-11-20T16:44:44.597Z,96858.63
2023-11-20T16:47:11.225Z,96865.81
2023-11-20T16:49:37.872Z,96863.56
2023-11-20T16:52:04.488Z,96870.59
2023-11-20T16:54:31.155Z,96876.13
2023-11-20T16:56:57.778Z,96882.13
2023-11-20T16:59:24.442Z,96874.94
2023-11-20T17:01:51.134Z,96876.69
2023-11-20T17:04:17.807Z,96877.66
2023-11-20T17:06:44.458Z,96874.22
2023-11-20T17:09:11.054Z,96875.81
2023-11-20T17:11:37.643Z,96877.91
2023-11-20T17:14:04.272Z,96877.06
2023-11-20T17:16:31.114Z,96884.06
2023-11-20T17:18:57.966Z,96880.63
2023-11-20T17:21:24.647Z,96877.72
2023-11-20T17:23:53.234Z,96883.91
2023-11-20T17:26:19.822Z,96880.19
2023-11-20T17:28:46.454Z,96877.94
2023-11-20T17:31:15.078Z,96882.59
2023-11-20T17:33:41.761Z,96880.16
2023-11-20T17:36:08.351Z,96893.47
2023-11-20T17:38:34.978Z,96887.06
2023-11-20T17:41:01.562Z,96896.44
2023-11-20T17:43:30.450Z,96893.72
2023-11-20T17:45:57.178Z,96896.72
2023-11-20T17:48:23.867Z,96888.69
2023-11-20T17:50:50.452Z,96894.34
2023-11-20T17:53:17.034Z,96893.56
2023-11-20T17:55:43.669Z,96894.97
2023-11-20T17:58:10.313Z,96895.25
2023-11-20T18:00:37.009Z,96906.66
2023-11-20T18:03:06.341Z,96909.03
2023-11-20T18:05:37.257Z,96902.41
2023-11-20T18:08:03.864Z,96900.78
2023-11-20T18:10:30.528Z,96907.66
2023-11-20T18:12:57.133Z,96891.25
2023-11-20T18:15:25.313Z,96895.25
2023-11-20T18:17:52.134Z,96897.84
2023-11-20T18:20:18.888Z,96891.25
2023-11-20T18:22:45.486Z,96892.59
2023-11-20T18:25:12.135Z,96894.63
2023-11-20T18:27:38.750Z,96892.03
2023-11-20T18:30:05.360Z,96888.28
2023-11-20T18:32:31.991Z,96885.63
2023-11-20T18:34:58.617Z,96883.66
2023-11-20T18:37:25.443Z,96885.31
2023-11-20T18:39:52.072Z,96891.19
2023-11-20T18:42:18.651Z,96888.16
2023-11-20T18:44:45.404Z,96885.28
2023-11-20T18:47:12.154Z,96893.53
2023-11-20T18:49:38.849Z,96891.56
2023-11-20T18:52:05.518Z,96888.81
2023-11-20T18:54:32.121Z,96897.16
2023-11-20T18:56:58.723Z,96886.16
2023-11-20T18:59:25.296Z,96877.44
2023-11-20T19:01:51.925Z,96875.69
2023-11-20T19:04:18.690Z,96878.50
2023-11-20T19:06:45.278Z,96866.16
2023-11-20T19:09:11.873Z,96868.88
2023-11-20T19:11:38.455Z,96878.69
2023-11-20T19:14:05.128Z,96883.41
2023-11-20T19:16:31.769Z,96881.44
2023-11-20T19:18:58.384Z,96875.81
2023-11-20T19:21:25.037Z,96876.16
2023-11-20T19:23:51.488Z,96877.31
2023-11-20T19:26:17.921Z,96867.97
2023-11-20T19:28:44.356Z,96869.78
2023-11-20T19:31:10.877Z,96869.03
2023-11-20T19:33:37.335Z,96878.97
2023-11-20T19:36:03.840Z,96877.66
2023-11-20T19:38:30.273Z,96870.72
2023-11-20T19:40:56.766Z,96869.81
2023-11-20T19:43:23.236Z,96871.97
2023-11-20T19:45:49.660Z,96865.22
2023-11-20T19:48:16.145Z,96866.28
2023-11-20T19:50:42.593Z,96857.53
2023-11-20T19:53:09.089Z,96860.03
2023-11-20T19:55:35.543Z,96860.66
2023-11-20T19:58:02.054Z,96848.13
2023-11-20T20:00:28.578Z,96859.88
2023-11-20T20:02:55.084Z,96855.25
2023-11-20T20:05:23.845Z,96856.25
2023-11-20T20:07:54.607Z,96855.75
2023-11-20T20:10:21.072Z,96854.69
2023-11-20T20:12:47.533Z,96846.94
2023-11-20T20:15:14.095Z,96851.13
2023-11-20T20:17:43.694Z,96845.38
2023-11-20T20:20:10.177Z,96842.44
2023-11-20T20:22:37.201Z,96841.72
2023-11-20T20:25:04.025Z,96839.72
2023-11-20T20:27:30.618Z,96838.50
2023-11-20T20:29:57.208Z,96850.00
2023-11-20T20:32:23.798Z,96851.13
2023-11-20T20:34:50.458Z,96847.97
2023-11-20T20:37:17.137Z,96844.28
2023-11-20T20:39:43.720Z,96841.41
2023-11-20T20:42:10.579Z,96840.28
2023-11-20T20:44:37.032Z,96845.13
2023-11-20T20:47:03.525Z,96845.84
2023-11-20T20:49:30.047Z,96847.53
2023-11-20T20:51:56.483Z,96839.50
2023-11-20T20:54:22.953Z,96843.00
2023-11-20T20:56:49.372Z,96833.44
2023-11-20T20:59:15.773Z,96832.19
2023-11-20T21:01:42.286Z,96832.03
2023-11-20T21:04:08.785Z,96828.66
2023-11-20T21:06:35.345Z,96825.31
2023-11-20T21:09:01.802Z,96828.31
2023-11-20T21:11:28.273Z,96826.28
2023-11-20T21:13:54.889Z,96830.09
2023-11-20T21:16:23.013Z,96836.91
2023-11-20T21:18:49.650Z,96830.94
2023-11-20T21:21:16.268Z,96839.75
2023-11-20T21:23:42.686Z,96831.13
2023-11-20T21:26:09.269Z,96829.25
2023-11-20T21:28:36.222Z,96827.75
2023-11-20T21:31:04.803Z,96822.69
2023-11-20T21:33:34.355Z,96829.94
2023-11-20T21:36:00.830Z,96821.72
2023-11-20T21:38:27.275Z,96822.78
2023-11-20T21:40:53.873Z,96819.13
2023-11-20T21:43:20.803Z,96811.97
2023-11-20T21:45:51.537Z,96809.22
2023-11-20T21:48:18.253Z,96818.84
2023-11-20T21:50:45.028Z,96813.06
2023-11-20T21:53:11.947Z,96811.44
2023-11-20T21:55:39.025Z,96813.59
2023-11-20T21:58:05.793Z,96798.59
2023-11-20T22:00:32.442Z,96797.81
2023-11-20T22:02:58.903Z,96785.84
2023-11-20T22:05:25.385Z,96787.69
2023-11-20T22:07:51.850Z,96799.94
2023-11-20T22:10:18.324Z,96798.06
2023-11-20T22:12:44.771Z,96795.88
2023-11-20T22:15:11.180Z,96796.53
2023-11-20T22:17:37.606Z,96793.09
2023-11-20T22:20:04.228Z,96793.09
2023-11-20T22:22:30.768Z,96795.34
2023-11-20T22:24:57.188Z,96803.91
2023-11-20T22:27:23.616Z,96796.69
2023-11-20T22:29:50.051Z,96805.69
2023-11-20T22:32:16.555Z,96801.16
2023-11-20T22:34:43.220Z,96801.91
2023-11-20T22:37:09.726Z,96805.03
2023-11-20T22:39:36.160Z,96806.53
2023-11-20T22:42:02.617Z,96810.50
2023-11-20T22:44:29.133Z,96805.44
2023-11-20T22:46:55.662Z,96800.53
2023-11-20T22:49:22.262Z,96802.47
2023-11-20T22:51:48.685Z,96804.25
2023-11-20T22:54:15.147Z,96808.00
2023-11-20T22:56:41.565Z,96804.38
2023-11-20T22:59:08.023Z,96805.16
2023-11-20T23:01:34.741Z,96801.06
2023-11-20T23:04:01.464Z,96789.50
2023-11-20T23:06:28.126Z,96796.91
2023-11-20T23:08:54.708Z,96799.44
2023-11-20T23:11:21.286Z,96787.09
2023-11-20T23:13:47.954Z,96791.06
2023-11-20T23:16:16.738Z,96789.63
2023-11-20T23:18:43.574Z,96782.81
2023-11-20T23:21:10.173Z,96780.63
2023-11-20T23:23:36.765Z,96781.47
2023-11-20T23:26:03.339Z,96778.38
2023-11-20T23:28:30.024Z,96776.50
2023-11-20T23:30:56.637Z,96774.03
2023-11-20T23:33:23.223Z,96787.25
2023-11-20T23:35:49.822Z,96776.47
2023-11-20T23:38:16.421Z,96780.63
2023-11-20T23:40:43.010Z,96778.06
2023-11-20T23:43:09.891Z,96771.13
2023-11-20T23:45:36.495Z,96770.50
2023-11-20T23:48:03.084Z,96770.19
2023-11-20T23:50:29.713Z,96763.31
2023-11-20T23:52:56.306Z,96762.53
2023-11-20T23:55:22.975Z,96769.47
2023-11-20T23:57:49.600Z,96767.41
